Maple, NC (27956)

11:40 PM EDT on August 22, 2014 (GMT -0400)
Currituck | Change Station
CLOSE
Current Station
Airport
Location: Currituck,
Elevation: 16 ft
Nearby Weather Stations

Elev 16 ft 36.40 °N, 76.02 °W | Updated 25 minutes ago

Clear
Clear
74 °F
Feels Like 74 °F
N
0
Wind Variable Wind from North

Today
High -- | Low -- °F
--% Chance of Precip.
Yesterday
High -- | Low -- °F
Precip. -- in
6:27 AM 7:45 PM
Waning Crescent, 5% visible
Pressure 29.97 in
Visibility 7.0 miles
Clouds Clear
Dew Point 67 °F
Humidity 81%
Rainfall 0.12 in
Snow Depth Not available.
UV 0 out of 12
Pollen 8.40 out of 12
Air Quality Not available.
Flu Activity Not available.
METAR KONX 230315Z AUTO 00000KT 7SM CLR 23/20 A2997 RMK AO2 T02310196

More Conditions Fewer Conditions

Pressure 29.97 in
Visibility 7.0 miles
Clouds Clear
Dew Point 67 °F
Humidity 81%
Rainfall 0.12 in
Snow Depth Not available.
UV 0 out of 12
Pollen 8.40 out of 12
Air Quality Not available.
Flu Activity Not available.
METAR KONX 230315Z AUTO 00000KT 7SM CLR 23/20 A2997 RMK AO2 T02310196

More Conditions Fewer Conditions

10-Day Weather Forecast

Almanac

Astronomy

Aug. 22, 2014 Rise Set
Actual Time 6:27 AM EDT 7:45 PM EDT
Civil Twilight 6:00 AM EDT 8:12 PM EDT
Nautical Twilight 5:28 AM EDT 8:44 PM EDT
Astronomical Twilight 4:54 AM EDT 9:18 PM EDT
Moon 3:50 AM EDT (8/22) 5:51 PM EDT (8/22)
Length of Visible Light 14h 12m
Length of Day
13h 18m
Tomorrow will be 2m 7s shorter.
Waning Crescent, 5% of the Moon is Illuminated
Today
Waning Crescent
Aug 25
New
Sep 2
First Quarter
Sep 8
Full
Sep 15
Last Quarter

Today's Extremes

State Highs State Lows

Community

WunderPhotos

Upload Photos

1,746,352 photos uploaded!

WunderBlogs® & News

Nearby

Snow Depth

Station Depth Elevation
No new snow has been reported.

Earthquake Activity

City Distance Mag. Time & Date
No recent earthquake activity has been reported nearby.
Minimum magnitude displayed is 2.5.

Coastal Water Temperatures

Place Temperature
Duck Pier, NC 81.0 °F
Oregon Inlet Marina, NC 84.0 °F
Money Point, VA 82.9 °F
Sewells Point, VA 80.1 °F
Chesapeake Bay Bridge Tunnel, VA 77.0 °F

Nearby Weather Stations